sensor_id;sensor_type;location;lat;lon;timestamp;P1;durP1;ratioP1;P2;durP2;ratioP2
479;SDS011;226;48.606;9.096;2023-05-16T00:01:59;6.00;;;4.47;;
479;SDS011;226;48.606;9.096;2023-05-16T00:04:28;8.00;;;6.00;;
479;SDS011;226;48.606;9.096;2023-05-16T00:06:59;7.30;;;4.93;;
479;SDS011;226;48.606;9.096;2023-05-16T00:09:28;7.13;;;4.80;;
479;SDS011;226;48.606;9.096;2023-05-16T00:11:56;8.83;;;4.77;;
479;SDS011;226;48.606;9.096;2023-05-16T00:14:25;8.67;;;4.93;;
479;SDS011;226;48.606;9.096;2023-05-16T00:16:53;9.90;;;5.93;;
479;SDS011;226;48.606;9.096;2023-05-16T00:19:22;6.40;;;4.63;;
479;SDS011;226;48.606;9.096;2023-05-16T00:21:51;7.40;;;4.00;;
479;SDS011;226;48.606;9.096;2023-05-16T00:24:21;8.97;;;5.37;;
479;SDS011;226;48.606;9.096;2023-05-16T00:26:50;12.67;;;5.53;;
479;SDS011;226;48.606;9.096;2023-05-16T00:29:18;10.57;;;4.70;;
479;SDS011;226;48.606;9.096;2023-05-16T00:31:47;13.13;;;5.43;;
479;SDS011;226;48.606;9.096;2023-05-16T00:34:15;9.73;;;5.27;;
479;SDS011;226;48.606;9.096;2023-05-16T00:36:44;9.07;;;5.80;;
479;SDS011;226;48.606;9.096;2023-05-16T00:39:12;7.53;;;5.70;;
479;SDS011;226;48.606;9.096;2023-05-16T00:41:42;7.63;;;4.87;;
479;SDS011;226;48.606;9.096;2023-05-16T00:44:11;6.43;;;4.60;;
479;SDS011;226;48.606;9.096;2023-05-16T00:46:39;9.27;;;5.43;;
479;SDS011;226;48.606;9.096;2023-05-16T00:49:07;5.40;;;4.43;;
479;SDS011;226;48.606;9.096;2023-05-16T00:51:36;7.73;;;4.70;;
479;SDS011;226;48.606;9.096;2023-05-16T00:54:05;5.33;;;4.07;;
479;SDS011;226;48.606;9.096;2023-05-16T00:56:34;8.97;;;4.47;;
479;SDS011;226;48.606;9.096;2023-05-16T00:59:04;9.73;;;6.50;;
479;SDS011;226;48.606;9.096;2023-05-16T01:01:32;7.60;;;4.90;;
479;SDS011;226;48.606;9.096;2023-05-16T01:04:00;6.20;;;4.93;;
479;SDS011;226;48.606;9.096;2023-05-16T01:06:29;6.60;;;4.73;;
479;SDS011;226;48.606;9.096;2023-05-16T01:08:58;9.83;;;5.00;;
479;SDS011;226;48.606;9.096;2023-05-16T01:11:29;6.57;;;4.50;;
479;SDS011;226;48.606;9.096;2023-05-16T01:13:59;8.30;;;5.53;;
479;SDS011;226;48.606;9.096;2023-05-16T01:16:35;6.07;;;4.40;;
479;SDS011;226;48.606;9.096;2023-05-16T01:19:06;7.60;;;4.57;;
479;SDS011;226;48.606;9.096;2023-05-16T01:21:43;7.20;;;4.73;;
479;SDS011;226;48.606;9.096;2023-05-16T01:24:21;4.87;;;4.00;;
479;SDS011;226;48.606;9.096;2023-05-16T01:26:52;5.97;;;4.57;;
479;SDS011;226;48.606;9.096;2023-05-16T01:29:21;7.80;;;4.50;;
479;SDS011;226;48.606;9.096;2023-05-16T01:31:50;10.00;;;4.97;;
479;SDS011;226;48.606;9.096;2023-05-16T01:34:18;12.00;;;5.73;;
479;SDS011;226;48.606;9.096;2023-05-16T01:36:47;6.10;;;4.83;;
479;SDS011;226;48.606;9.096;2023-05-16T01:39:18;8.50;;;5.23;;
479;SDS011;226;48.606;9.096;2023-05-16T01:41:50;6.77;;;4.87;;
479;SDS011;226;48.606;9.096;2023-05-16T01:44:23;8.73;;;5.17;;
479;SDS011;226;48.606;9.096;2023-05-16T01:46:53;9.80;;;5.13;;
479;SDS011;226;48.606;9.096;2023-05-16T01:49:24;11.77;;;5.30;;
479;SDS011;226;48.606;9.096;2023-05-16T01:51:54;6.37;;;4.77;;
479;SDS011;226;48.606;9.096;2023-05-16T01:54:24;8.40;;;5.50;;
479;SDS011;226;48.606;9.096;2023-05-16T01:56:53;8.33;;;5.07;;
479;SDS011;226;48.606;9.096;2023-05-16T01:59:23;12.27;;;5.83;;
479;SDS011;226;48.606;9.096;2023-05-16T02:01:52;8.77;;;5.07;;
479;SDS011;226;48.606;9.096;2023-05-16T02:04:21;9.67;;;7.50;;
479;SDS011;226;48.606;9.096;2023-05-16T02:06:50;16.57;;;8.60;;
479;SDS011;226;48.606;9.096;2023-05-16T02:09:18;27.80;;;11.60;;
479;SDS011;226;48.606;9.096;2023-05-16T02:11:46;30.70;;;13.40;;
479;SDS011;226;48.606;9.096;2023-05-16T02:14:15;48.43;;;15.97;;
479;SDS011;226;48.606;9.096;2023-05-16T02:16:45;40.20;;;15.67;;
479;SDS011;226;48.606;9.096;2023-05-16T02:19:13;43.60;;;17.40;;
479;SDS011;226;48.606;9.096;2023-05-16T02:21:41;53.23;;;19.37;;
479;SDS011;226;48.606;9.096;2023-05-16T02:24:10;53.73;;;18.53;;
479;SDS011;226;48.606;9.096;2023-05-16T02:26:38;51.40;;;19.77;;
479;SDS011;226;48.606;9.096;2023-05-16T02:29:06;55.03;;;20.17;;
479;SDS011;226;48.606;9.096;2023-05-16T02:31:35;54.30;;;19.93;;
479;SDS011;226;48.606;9.096;2023-05-16T02:34:05;50.57;;;18.40;;
479;SDS011;226;48.606;9.096;2023-05-16T02:36:33;49.03;;;18.53;;
479;SDS011;226;48.606;9.096;2023-05-16T02:39:02;59.77;;;18.50;;
479;SDS011;226;48.606;9.096;2023-05-16T02:41:31;55.17;;;19.30;;
479;SDS011;226;48.606;9.096;2023-05-16T02:43:59;44.70;;;16.93;;
479;SDS011;226;48.606;9.096;2023-05-16T02:46:28;45.43;;;18.83;;
479;SDS011;226;48.606;9.096;2023-05-16T02:48:56;57.83;;;17.20;;
479;SDS011;226;48.606;9.096;2023-05-16T02:51:26;54.40;;;17.23;;
479;SDS011;226;48.606;9.096;2023-05-16T02:53:55;49.17;;;18.80;;
479;SDS011;226;48.606;9.096;2023-05-16T02:56:25;51.47;;;16.60;;
479;SDS011;226;48.606;9.096;2023-05-16T02:58:54;49.80;;;16.57;;
479;SDS011;226;48.606;9.096;2023-05-16T03:01:22;53.93;;;17.93;;
479;SDS011;226;48.606;9.096;2023-05-16T03:03:51;58.63;;;16.20;;
479;SDS011;226;48.606;9.096;2023-05-16T03:06:19;57.70;;;19.70;;
479;SDS011;226;48.606;9.096;2023-05-16T03:08:49;47.97;;;15.60;;
479;SDS011;226;48.606;9.096;2023-05-16T03:11:17;50.47;;;18.27;;
479;SDS011;226;48.606;9.096;2023-05-16T03:13:48;42.50;;;18.23;;
479;SDS011;226;48.606;9.096;2023-05-16T03:16:16;53.07;;;21.50;;
479;SDS011;226;48.606;9.096;2023-05-16T03:18:44;54.37;;;18.63;;
479;SDS011;226;48.606;9.096;2023-05-16T03:21:13;68.80;;;20.37;;
479;SDS011;226;48.606;9.096;2023-05-16T03:23:41;41.70;;;16.10;;
479;SDS011;226;48.606;9.096;2023-05-16T03:26:11;51.93;;;18.80;;
479;SDS011;226;48.606;9.096;2023-05-16T03:28:40;58.67;;;20.97;;
479;SDS011;226;48.606;9.096;2023-05-16T03:31:08;56.00;;;18.90;;
479;SDS011;226;48.606;9.096;2023-05-16T03:33:37;52.37;;;19.17;;
479;SDS011;226;48.606;9.096;2023-05-16T03:36:05;51.57;;;23.77;;
479;SDS011;226;48.606;9.096;2023-05-16T03:38:34;61.87;;;20.77;;
479;SDS011;226;48.606;9.096;2023-05-16T03:41:02;59.67;;;21.27;;
479;SDS011;226;48.606;9.096;2023-05-16T03:43:32;54.27;;;20.47;;
479;SDS011;226;48.606;9.096;2023-05-16T03:46:00;55.97;;;20.23;;
479;SDS011;226;48.606;9.096;2023-05-16T03:48:30;59.63;;;17.80;;
479;SDS011;226;48.606;9.096;2023-05-16T03:50:58;51.27;;;19.17;;
479;SDS011;226;48.606;9.096;2023-05-16T03:53:27;62.83;;;20.77;;
479;SDS011;226;48.606;9.096;2023-05-16T03:55:55;57.97;;;19.90;;
479;SDS011;226;48.606;9.096;2023-05-16T03:58:24;54.83;;;18.20;;
479;SDS011;226;48.606;9.096;2023-05-16T04:00:54;64.83;;;20.50;;
479;SDS011;226;48.606;9.096;2023-05-16T04:03:22;66.43;;;20.97;;
479;SDS011;226;48.606;9.096;2023-05-16T04:05:54;48.97;;;19.37;;
479;SDS011;226;48.606;9.096;2023-05-16T04:08:22;73.87;;;20.77;;
479;SDS011;226;48.606;9.096;2023-05-16T04:10:51;65.73;;;21.00;;
479;SDS011;226;48.606;9.096;2023-05-16T04:13:19;59.87;;;19.03;;
479;SDS011;226;48.606;9.096;2023-05-16T04:15:48;60.33;;;20.67;;
479;SDS011;226;48.606;9.096;2023-05-16T04:18:17;58.50;;;20.47;;
479;SDS011;226;48.606;9.096;2023-05-16T04:20:46;58.07;;;18.97;;
479;SDS011;226;48.606;9.096;2023-05-16T04:23:15;71.10;;;23.77;;
479;SDS011;226;48.606;9.096;2023-05-16T04:25:43;62.03;;;21.90;;
479;SDS011;226;48.606;9.096;2023-05-16T04:28:11;57.57;;;18.10;;
479;SDS011;226;48.606;9.096;2023-05-16T04:30:40;79.23;;;21.10;;
479;SDS011;226;48.606;9.096;2023-05-16T04:33:08;57.80;;;20.10;;
479;SDS011;226;48.606;9.096;2023-05-16T04:35:38;65.80;;;22.87;;
479;SDS011;226;48.606;9.096;2023-05-16T04:38:07;71.27;;;22.20;;
479;SDS011;226;48.606;9.096;2023-05-16T04:40:35;58.13;;;20.27;;
479;SDS011;226;48.606;9.096;2023-05-16T04:43:04;57.57;;;21.60;;
479;SDS011;226;48.606;9.096;2023-05-16T04:45:32;66.67;;;20.70;;
479;SDS011;226;48.606;9.096;2023-05-16T04:48:03;69.93;;;22.30;;
479;SDS011;226;48.606;9.096;2023-05-16T04:50:31;74.23;;;22.13;;
479;SDS011;226;48.606;9.096;2023-05-16T04:53:01;60.77;;;20.07;;
479;SDS011;226;48.606;9.096;2023-05-16T04:55:29;65.47;;;20.67;;
479;SDS011;226;48.606;9.096;2023-05-16T04:57:58;76.53;;;21.27;;
479;SDS011;226;48.606;9.096;2023-05-16T05:00:26;67.73;;;21.40;;
479;SDS011;226;48.606;9.096;2023-05-16T05:02:55;57.70;;;19.63;;
479;SDS011;226;48.606;9.096;2023-05-16T05:05:24;61.73;;;20.20;;
479;SDS011;226;48.606;9.096;2023-05-16T05:07:53;71.37;;;20.33;;
479;SDS011;226;48.606;9.096;2023-05-16T05:10:23;56.63;;;18.80;;
479;SDS011;226;48.606;9.096;2023-05-16T05:12:52;65.73;;;21.67;;
479;SDS011;226;48.606;9.096;2023-05-16T05:15:21;55.67;;;19.07;;
479;SDS011;226;48.606;9.096;2023-05-16T05:17:50;58.60;;;18.63;;
479;SDS011;226;48.606;9.096;2023-05-16T05:20:18;70.97;;;20.27;;
479;SDS011;226;48.606;9.096;2023-05-16T05:22:46;69.20;;;21.10;;
479;SDS011;226;48.606;9.096;2023-05-16T05:25:15;57.53;;;18.93;;
479;SDS011;226;48.606;9.096;2023-05-16T05:27:45;70.30;;;20.20;;
479;SDS011;226;48.606;9.096;2023-05-16T05:30:13;55.37;;;20.30;;
479;SDS011;226;48.606;9.096;2023-05-16T05:32:41;52.23;;;20.73;;
479;SDS011;226;48.606;9.096;2023-05-16T05:35:10;52.37;;;18.77;;
479;SDS011;226;48.606;9.096;2023-05-16T05:37:38;54.77;;;19.10;;
479;SDS011;226;48.606;9.096;2023-05-16T05:40:07;55.27;;;19.50;;
479;SDS011;226;48.606;9.096;2023-05-16T05:42:35;48.50;;;18.00;;
479;SDS011;226;48.606;9.096;2023-05-16T05:45:05;54.00;;;18.80;;
479;SDS011;226;48.606;9.096;2023-05-16T05:47:34;52.27;;;17.63;;
479;SDS011;226;48.606;9.096;2023-05-16T05:50:03;47.30;;;17.43;;
479;SDS011;226;48.606;9.096;2023-05-16T05:52:32;49.43;;;18.63;;
479;SDS011;226;48.606;9.096;2023-05-16T05:55:00;55.10;;;19.10;;
479;SDS011;226;48.606;9.096;2023-05-16T05:57:28;58.83;;;20.60;;
479;SDS011;226;48.606;9.096;2023-05-16T05:59:57;59.23;;;23.03;;
479;SDS011;226;48.606;9.096;2023-05-16T06:02:26;57.70;;;19.47;;
479;SDS011;226;48.606;9.096;2023-05-16T06:04:55;45.03;;;18.37;;
479;SDS011;226;48.606;9.096;2023-05-16T06:07:23;54.67;;;17.40;;
479;SDS011;226;48.606;9.096;2023-05-16T06:09:52;60.33;;;18.70;;
479;SDS011;226;48.606;9.096;2023-05-16T06:12:20;68.87;;;19.30;;
479;SDS011;226;48.606;9.096;2023-05-16T06:14:49;61.23;;;18.83;;
479;SDS011;226;48.606;9.096;2023-05-16T06:17:17;51.07;;;19.77;;
479;SDS011;226;48.606;9.096;2023-05-16T06:19:47;58.67;;;19.60;;
479;SDS011;226;48.606;9.096;2023-05-16T06:22:15;71.93;;;20.90;;
479;SDS011;226;48.606;9.096;2023-05-16T06:24:43;49.73;;;18.37;;
479;SDS011;226;48.606;9.096;2023-05-16T06:27:12;58.13;;;19.30;;
479;SDS011;226;48.606;9.096;2023-05-16T06:29:40;66.43;;;21.23;;
479;SDS011;226;48.606;9.096;2023-05-16T06:32:08;45.00;;;16.13;;
479;SDS011;226;48.606;9.096;2023-05-16T06:34:38;49.03;;;16.17;;
479;SDS011;226;48.606;9.096;2023-05-16T06:37:08;51.50;;;17.80;;
479;SDS011;226;48.606;9.096;2023-05-16T06:39:36;47.97;;;18.40;;
479;SDS011;226;48.606;9.096;2023-05-16T06:42:05;63.83;;;18.50;;
479;SDS011;226;48.606;9.096;2023-05-16T06:44:33;59.20;;;19.13;;
479;SDS011;226;48.606;9.096;2023-05-16T06:47:02;42.93;;;19.00;;
479;SDS011;226;48.606;9.096;2023-05-16T06:49:30;57.53;;;19.30;;
479;SDS011;226;48.606;9.096;2023-05-16T06:51:59;54.17;;;18.47;;
479;SDS011;226;48.606;9.096;2023-05-16T06:54:29;60.00;;;18.50;;
479;SDS011;226;48.606;9.096;2023-05-16T06:56:57;41.20;;;16.97;;
479;SDS011;226;48.606;9.096;2023-05-16T06:59:26;36.20;;;14.43;;
479;SDS011;226;48.606;9.096;2023-05-16T07:01:54;43.63;;;15.07;;
479;SDS011;226;48.606;9.096;2023-05-16T07:04:22;39.30;;;12.93;;
479;SDS011;226;48.606;9.096;2023-05-16T07:06:51;36.80;;;17.00;;
479;SDS011;226;48.606;9.096;2023-05-16T07:09:19;43.90;;;15.90;;
479;SDS011;226;48.606;9.096;2023-05-16T07:11:49;57.13;;;18.30;;
479;SDS011;226;48.606;9.096;2023-05-16T07:14:17;38.20;;;14.40;;
479;SDS011;226;48.606;9.096;2023-05-16T07:16:46;35.30;;;15.10;;
479;SDS011;226;48.606;9.096;2023-05-16T07:19:14;39.33;;;14.23;;
479;SDS011;226;48.606;9.096;2023-05-16T07:21:43;34.47;;;13.70;;
479;SDS011;226;48.606;9.096;2023-05-16T07:24:11;39.17;;;14.17;;
479;SDS011;226;48.606;9.096;2023-05-16T07:26:40;32.37;;;14.63;;
479;SDS011;226;48.606;9.096;2023-05-16T07:29:10;38.83;;;14.00;;
479;SDS011;226;48.606;9.096;2023-05-16T07:31:38;46.33;;;14.10;;
479;SDS011;226;48.606;9.096;2023-05-16T07:34:07;38.40;;;15.10;;
479;SDS011;226;48.606;9.096;2023-05-16T07:36:36;35.93;;;13.63;;
479;SDS011;226;48.606;9.096;2023-05-16T07:39:04;35.47;;;15.33;;
479;SDS011;226;48.606;9.096;2023-05-16T07:41:33;29.13;;;11.57;;
479;SDS011;226;48.606;9.096;2023-05-16T07:44:01;35.77;;;14.23;;
479;SDS011;226;48.606;9.096;2023-05-16T07:46:31;25.97;;;11.90;;
479;SDS011;226;48.606;9.096;2023-05-16T07:49:00;38.50;;;14.13;;
479;SDS011;226;48.606;9.096;2023-05-16T07:51:28;23.47;;;10.20;;
479;SDS011;226;48.606;9.096;2023-05-16T07:53:57;29.73;;;11.60;;
479;SDS011;226;48.606;9.096;2023-05-16T07:56:25;26.00;;;11.00;;
479;SDS011;226;48.606;9.096;2023-05-16T07:58:54;32.30;;;12.23;;
479;SDS011;226;48.606;9.096;2023-05-16T08:01:22;16.33;;;8.90;;
479;SDS011;226;48.606;9.096;2023-05-16T08:03:53;25.00;;;10.90;;
479;SDS011;226;48.606;9.096;2023-05-16T08:06:21;25.20;;;11.17;;
479;SDS011;226;48.606;9.096;2023-05-16T08:08:50;24.60;;;10.40;;
479;SDS011;226;48.606;9.096;2023-05-16T08:11:18;21.20;;;9.97;;
479;SDS011;226;48.606;9.096;2023-05-16T08:13:48;23.07;;;11.20;;
479;SDS011;226;48.606;9.096;2023-05-16T08:16:16;26.70;;;10.10;;
479;SDS011;226;48.606;9.096;2023-05-16T08:18:45;20.50;;;8.97;;
479;SDS011;226;48.606;9.096;2023-05-16T08:21:15;22.47;;;9.37;;
479;SDS011;226;48.606;9.096;2023-05-16T08:23:43;18.37;;;8.77;;
479;SDS011;226;48.606;9.096;2023-05-16T08:26:11;18.30;;;8.70;;
479;SDS011;226;48.606;9.096;2023-05-16T08:28:40;17.33;;;8.43;;
479;SDS011;226;48.606;9.096;2023-05-16T08:31:08;26.17;;;10.60;;
479;SDS011;226;48.606;9.096;2023-05-16T08:33:37;20.53;;;9.90;;
479;SDS011;226;48.606;9.096;2023-05-16T08:36:06;20.17;;;8.73;;
479;SDS011;226;48.606;9.096;2023-05-16T08:38:35;25.77;;;9.70;;
479;SDS011;226;48.606;9.096;2023-05-16T08:41:04;24.33;;;9.50;;
479;SDS011;226;48.606;9.096;2023-05-16T08:43:33;24.20;;;9.27;;
479;SDS011;226;48.606;9.096;2023-05-16T08:46:02;32.90;;;11.90;;
479;SDS011;226;48.606;9.096;2023-05-16T08:48:30;23.13;;;9.80;;
479;SDS011;226;48.606;9.096;2023-05-16T08:50:59;22.77;;;10.60;;
479;SDS011;226;48.606;9.096;2023-05-16T08:53:31;23.27;;;9.60;;
479;SDS011;226;48.606;9.096;2023-05-16T08:56:00;25.87;;;10.60;;
479;SDS011;226;48.606;9.096;2023-05-16T08:58:30;31.80;;;11.90;;
479;SDS011;226;48.606;9.096;2023-05-16T09:00:58;25.27;;;10.87;;
479;SDS011;226;48.606;9.096;2023-05-16T09:03:29;23.50;;;9.83;;
479;SDS011;226;48.606;9.096;2023-05-16T09:05:58;29.47;;;13.90;;
479;SDS011;226;48.606;9.096;2023-05-16T09:08:27;27.23;;;11.97;;
479;SDS011;226;48.606;9.096;2023-05-16T09:10:55;27.00;;;11.70;;
479;SDS011;226;48.606;9.096;2023-05-16T09:13:25;22.47;;;10.83;;
479;SDS011;226;48.606;9.096;2023-05-16T09:16:09;30.77;;;12.00;;
479;SDS011;226;48.606;9.096;2023-05-16T09:18:38;26.30;;;9.80;;
479;SDS011;226;48.606;9.096;2023-05-16T09:21:07;30.90;;;11.53;;
479;SDS011;226;48.606;9.096;2023-05-16T09:23:37;26.10;;;10.97;;
479;SDS011;226;48.606;9.096;2023-05-16T09:26:05;28.60;;;10.07;;
479;SDS011;226;48.606;9.096;2023-05-16T09:28:37;27.57;;;10.80;;
479;SDS011;226;48.606;9.096;2023-05-16T09:31:18;28.77;;;9.90;;
479;SDS011;226;48.606;9.096;2023-05-16T09:33:47;22.93;;;10.47;;
479;SDS011;226;48.606;9.096;2023-05-16T09:36:16;31.77;;;13.37;;
479;SDS011;226;48.606;9.096;2023-05-16T09:38:44;28.23;;;11.67;;
479;SDS011;226;48.606;9.096;2023-05-16T09:41:13;36.90;;;11.77;;
479;SDS011;226;48.606;9.096;2023-05-16T09:43:43;22.73;;;11.10;;
479;SDS011;226;48.606;9.096;2023-05-16T09:46:11;20.63;;;10.73;;
479;SDS011;226;48.606;9.096;2023-05-16T09:48:41;26.93;;;10.60;;
479;SDS011;226;48.606;9.096;2023-05-16T09:51:12;24.97;;;10.63;;
479;SDS011;226;48.606;9.096;2023-05-16T09:53:40;30.93;;;10.57;;
479;SDS011;226;48.606;9.096;2023-05-16T09:56:09;21.50;;;10.10;;
479;SDS011;226;48.606;9.096;2023-05-16T09:58:38;28.37;;;11.10;;
479;SDS011;226;48.606;9.096;2023-05-16T10:01:09;27.33;;;10.07;;
479;SDS011;226;48.606;9.096;2023-05-16T10:03:38;27.73;;;11.00;;
479;SDS011;226;48.606;9.096;2023-05-16T10:06:07;24.83;;;9.80;;
479;SDS011;226;48.606;9.096;2023-05-16T10:08:36;34.90;;;12.33;;
479;SDS011;226;48.606;9.096;2023-05-16T10:11:04;20.80;;;9.53;;
479;SDS011;226;48.606;9.096;2023-05-16T10:13:33;29.10;;;11.00;;
479;SDS011;226;48.606;9.096;2023-05-16T10:16:05;29.23;;;11.90;;
479;SDS011;226;48.606;9.096;2023-05-16T10:18:35;34.73;;;12.60;;
479;SDS011;226;48.606;9.096;2023-05-16T10:21:07;31.30;;;11.20;;
479;SDS011;226;48.606;9.096;2023-05-16T10:23:37;29.13;;;12.20;;
479;SDS011;226;48.606;9.096;2023-05-16T10:26:08;25.17;;;10.57;;
479;SDS011;226;48.606;9.096;2023-05-16T10:28:37;26.13;;;10.33;;
479;SDS011;226;48.606;9.096;2023-05-16T10:31:07;22.57;;;11.13;;
479;SDS011;226;48.606;9.096;2023-05-16T10:33:37;22.83;;;11.03;;
479;SDS011;226;48.606;9.096;2023-05-16T10:36:06;26.63;;;9.70;;
479;SDS011;226;48.606;9.096;2023-05-16T10:38:35;26.70;;;10.67;;
479;SDS011;226;48.606;9.096;2023-05-16T10:41:04;25.93;;;11.63;;
479;SDS011;226;48.606;9.096;2023-05-16T10:43:32;26.97;;;12.37;;
479;SDS011;226;48.606;9.096;2023-05-16T10:46:02;22.30;;;9.10;;
479;SDS011;226;48.606;9.096;2023-05-16T10:48:31;29.20;;;9.80;;
479;SDS011;226;48.606;9.096;2023-05-16T10:51:02;31.53;;;10.80;;
479;SDS011;226;48.606;9.096;2023-05-16T10:53:31;25.57;;;9.43;;
479;SDS011;226;48.606;9.096;2023-05-16T10:56:09;23.07;;;12.00;;
479;SDS011;226;48.606;9.096;2023-05-16T10:58:39;19.17;;;8.13;;
479;SDS011;226;48.606;9.096;2023-05-16T11:01:15;27.00;;;10.87;;
479;SDS011;226;48.606;9.096;2023-05-16T11:04:00;21.40;;;9.47;;
479;SDS011;226;48.606;9.096;2023-05-16T11:06:30;22.77;;;7.80;;
479;SDS011;226;48.606;9.096;2023-05-16T11:09:05;21.27;;;9.63;;
479;SDS011;226;48.606;9.096;2023-05-16T11:11:39;25.23;;;11.30;;
479;SDS011;226;48.606;9.096;2023-05-16T11:14:09;22.37;;;8.00;;
479;SDS011;226;48.606;9.096;2023-05-16T11:16:47;30.57;;;11.23;;
479;SDS011;226;48.606;9.096;2023-05-16T11:19:27;23.60;;;10.73;;
479;SDS011;226;48.606;9.096;2023-05-16T11:22:07;25.33;;;9.73;;
479;SDS011;226;48.606;9.096;2023-05-16T11:24:36;31.03;;;8.90;;
479;SDS011;226;48.606;9.096;2023-05-16T11:27:05;23.70;;;9.00;;
479;SDS011;226;48.606;9.096;2023-05-16T11:29:34;28.03;;;8.40;;
479;SDS011;226;48.606;9.096;2023-05-16T11:32:03;23.80;;;9.40;;
479;SDS011;226;48.606;9.096;2023-05-16T11:34:34;25.57;;;9.03;;
479;SDS011;226;48.606;9.096;2023-05-16T11:37:04;21.80;;;8.80;;
479;SDS011;226;48.606;9.096;2023-05-16T11:39:34;26.63;;;9.83;;
479;SDS011;226;48.606;9.096;2023-05-16T11:42:03;24.43;;;8.57;;
479;SDS011;226;48.606;9.096;2023-05-16T11:44:31;23.00;;;10.00;;
479;SDS011;226;48.606;9.096;2023-05-16T11:47:00;20.33;;;7.80;;
479;SDS011;226;48.606;9.096;2023-05-16T11:49:29;22.47;;;10.47;;
479;SDS011;226;48.606;9.096;2023-05-16T11:51:58;20.93;;;10.17;;
479;SDS011;226;48.606;9.096;2023-05-16T11:54:26;27.07;;;7.30;;
479;SDS011;226;48.606;9.096;2023-05-16T11:56:56;19.63;;;8.97;;
479;SDS011;226;48.606;9.096;2023-05-16T11:59:25;19.67;;;6.73;;
479;SDS011;226;48.606;9.096;2023-05-16T12:01:53;17.60;;;8.03;;
479;SDS011;226;48.606;9.096;2023-05-16T12:04:22;17.50;;;8.87;;
479;SDS011;226;48.606;9.096;2023-05-16T12:06:57;15.83;;;6.43;;
479;SDS011;226;48.606;9.096;2023-05-16T12:09:26;19.87;;;6.80;;
479;SDS011;226;48.606;9.096;2023-05-16T12:11:56;13.17;;;5.83;;
479;SDS011;226;48.606;9.096;2023-05-16T12:14:25;18.90;;;6.70;;
479;SDS011;226;48.606;9.096;2023-05-16T12:16:53;10.23;;;5.33;;
479;SDS011;226;48.606;9.096;2023-05-16T12:19:22;12.23;;;5.50;;
479;SDS011;226;48.606;9.096;2023-05-16T12:21:51;13.90;;;6.83;;
479;SDS011;226;48.606;9.096;2023-05-16T12:24:20;12.40;;;5.53;;
479;SDS011;226;48.606;9.096;2023-05-16T12:26:49;9.43;;;5.03;;
479;SDS011;226;48.606;9.096;2023-05-16T12:29:21;15.37;;;6.37;;
479;SDS011;226;48.606;9.096;2023-05-16T12:31:52;15.57;;;6.20;;
479;SDS011;226;48.606;9.096;2023-05-16T12:34:20;11.97;;;6.80;;
479;SDS011;226;48.606;9.096;2023-05-16T12:36:49;19.30;;;9.93;;
479;SDS011;226;48.606;9.096;2023-05-16T12:39:18;17.13;;;8.27;;
479;SDS011;226;48.606;9.096;2023-05-16T12:41:48;11.63;;;6.10;;
479;SDS011;226;48.606;9.096;2023-05-16T12:44:17;18.67;;;7.10;;
479;SDS011;226;48.606;9.096;2023-05-16T12:46:48;15.80;;;8.27;;
479;SDS011;226;48.606;9.096;2023-05-16T12:49:18;21.07;;;8.20;;
479;SDS011;226;48.606;9.096;2023-05-16T12:51:48;17.97;;;7.50;;
479;SDS011;226;48.606;9.096;2023-05-16T12:54:17;13.13;;;8.37;;
479;SDS011;226;48.606;9.096;2023-05-16T12:56:48;13.20;;;7.03;;
479;SDS011;226;48.606;9.096;2023-05-16T12:59:16;15.97;;;6.77;;
479;SDS011;226;48.606;9.096;2023-05-16T13:01:47;19.33;;;7.60;;
479;SDS011;226;48.606;9.096;2023-05-16T13:04:16;18.73;;;6.80;;
479;SDS011;226;48.606;9.096;2023-05-16T13:06:45;16.67;;;7.13;;
479;SDS011;226;48.606;9.096;2023-05-16T13:09:25;17.23;;;7.07;;
479;SDS011;226;48.606;9.096;2023-05-16T13:11:58;20.30;;;8.03;;
479;SDS011;226;48.606;9.096;2023-05-16T13:14:26;21.57;;;7.53;;
479;SDS011;226;48.606;9.096;2023-05-16T13:16:56;11.20;;;6.87;;
479;SDS011;226;48.606;9.096;2023-05-16T13:19:24;11.77;;;6.90;;
479;SDS011;226;48.606;9.096;2023-05-16T13:21:53;13.33;;;6.03;;
479;SDS011;226;48.606;9.096;2023-05-16T13:24:22;11.80;;;5.37;;
479;SDS011;226;48.606;9.096;2023-05-16T13:26:50;12.17;;;5.83;;
479;SDS011;226;48.606;9.096;2023-05-16T13:29:19;6.07;;;3.97;;
479;SDS011;226;48.606;9.096;2023-05-16T13:31:47;7.47;;;4.50;;
479;SDS011;226;48.606;9.096;2023-05-16T13:34:17;15.70;;;7.80;;
479;SDS011;226;48.606;9.096;2023-05-16T13:36:45;11.47;;;5.10;;
479;SDS011;226;48.606;9.096;2023-05-16T13:39:20;10.57;;;5.90;;
479;SDS011;226;48.606;9.096;2023-05-16T13:41:49;13.47;;;5.07;;
479;SDS011;226;48.606;9.096;2023-05-16T13:44:17;13.17;;;7.00;;
479;SDS011;226;48.606;9.096;2023-05-16T13:46:47;11.80;;;5.53;;
479;SDS011;226;48.606;9.096;2023-05-16T13:49:16;6.27;;;4.70;;
479;SDS011;226;48.606;9.096;2023-05-16T13:51:47;3.63;;;2.90;;
479;SDS011;226;48.606;9.096;2023-05-16T13:54:17;13.07;;;6.23;;
479;SDS011;226;48.606;9.096;2023-05-16T13:56:47;11.67;;;4.60;;
479;SDS011;226;48.606;9.096;2023-05-16T13:59:15;4.23;;;3.80;;
479;SDS011;226;48.606;9.096;2023-05-16T14:02:03;7.83;;;4.83;;
479;SDS011;226;48.606;9.096;2023-05-16T14:04:32;8.40;;;3.67;;
479;SDS011;226;48.606;9.096;2023-05-16T14:07:02;7.93;;;5.03;;
479;SDS011;226;48.606;9.096;2023-05-16T14:09:30;5.53;;;3.60;;
479;SDS011;226;48.606;9.096;2023-05-16T14:12:00;7.87;;;2.83;;
479;SDS011;226;48.606;9.096;2023-05-16T14:14:29;5.43;;;3.60;;
479;SDS011;226;48.606;9.096;2023-05-16T14:16:58;4.57;;;3.87;;
479;SDS011;226;48.606;9.096;2023-05-16T14:19:26;4.13;;;2.40;;
479;SDS011;226;48.606;9.096;2023-05-16T14:21:55;4.83;;;3.17;;
479;SDS011;226;48.606;9.096;2023-05-16T14:24:25;6.87;;;4.30;;
479;SDS011;226;48.606;9.096;2023-05-16T14:26:53;3.70;;;3.40;;
479;SDS011;226;48.606;9.096;2023-05-16T14:29:21;3.53;;;3.20;;
479;SDS011;226;48.606;9.096;2023-05-16T14:31:51;7.17;;;3.60;;
479;SDS011;226;48.606;9.096;2023-05-16T14:34:19;4.80;;;3.40;;
479;SDS011;226;48.606;9.096;2023-05-16T14:36:49;3.90;;;3.17;;
479;SDS011;226;48.606;9.096;2023-05-16T14:39:17;3.87;;;3.57;;
479;SDS011;226;48.606;9.096;2023-05-16T14:41:47;4.60;;;2.83;;
479;SDS011;226;48.606;9.096;2023-05-16T14:44:15;3.60;;;2.90;;
479;SDS011;226;48.606;9.096;2023-05-16T14:46:45;12.13;;;2.97;;
479;SDS011;226;48.606;9.096;2023-05-16T14:49:14;7.43;;;3.47;;
479;SDS011;226;48.606;9.096;2023-05-16T14:51:42;5.60;;;3.23;;
479;SDS011;226;48.606;9.096;2023-05-16T14:54:14;17.23;;;4.33;;
479;SDS011;226;48.606;9.096;2023-05-16T14:56:43;4.40;;;3.50;;
479;SDS011;226;48.606;9.096;2023-05-16T14:59:13;3.87;;;3.00;;
479;SDS011;226;48.606;9.096;2023-05-16T15:01:41;2.50;;;2.30;;
479;SDS011;226;48.606;9.096;2023-05-16T15:04:10;4.43;;;3.47;;
479;SDS011;226;48.606;9.096;2023-05-16T15:06:38;3.37;;;2.60;;
479;SDS011;226;48.606;9.096;2023-05-16T15:09:07;4.70;;;3.33;;
479;SDS011;226;48.606;9.096;2023-05-16T15:11:36;10.83;;;3.20;;
479;SDS011;226;48.606;9.096;2023-05-16T15:14:05;7.43;;;3.60;;
479;SDS011;226;48.606;9.096;2023-05-16T15:16:34;7.30;;;4.50;;
479;SDS011;226;48.606;9.096;2023-05-16T15:19:03;8.97;;;3.23;;
479;SDS011;226;48.606;9.096;2023-05-16T15:21:31;5.40;;;2.80;;
479;SDS011;226;48.606;9.096;2023-05-16T15:24:00;5.13;;;2.90;;
479;SDS011;226;48.606;9.096;2023-05-16T15:26:28;3.67;;;3.13;;
479;SDS011;226;48.606;9.096;2023-05-16T15:28:57;14.53;;;4.77;;
479;SDS011;226;48.606;9.096;2023-05-16T15:31:26;10.60;;;4.37;;
479;SDS011;226;48.606;9.096;2023-05-16T15:33:58;7.77;;;4.00;;
479;SDS011;226;48.606;9.096;2023-05-16T15:36:26;9.93;;;3.90;;
479;SDS011;226;48.606;9.096;2023-05-16T15:38:55;2.80;;;2.60;;